createdAt,value
2023-01-28T00:02:36.399Z,2.72
2023-01-28T00:05:39.167Z,2.73
2023-01-28T00:08:42.049Z,2.71
2023-01-28T00:11:44.727Z,2.65
2023-01-28T00:14:48.059Z,2.76
2023-01-28T00:17:50.760Z,2.73
2023-01-28T00:21:08.039Z,2.71
2023-01-28T00:24:10.719Z,2.79
2023-01-28T00:27:13.050Z,2.73
2023-01-28T00:30:15.801Z,2.82
2023-01-28T00:33:18.135Z,2.79
2023-01-28T00:36:24.249Z,2.82
2023-01-28T00:39:27.374Z,2.79
2023-01-28T00:42:29.970Z,2.78
2023-01-28T00:45:32.275Z,2.69
2023-01-28T00:48:37.369Z,2.71
2023-01-28T00:51:41.315Z,2.75
2023-01-28T00:54:43.921Z,2.71
2023-01-28T00:57:46.253Z,2.74
2023-01-28T01:00:48.867Z,2.69
2023-01-28T01:03:57.738Z,2.66
2023-01-28T01:07:00.443Z,2.81
2023-01-28T01:10:02.979Z,2.74
2023-01-28T01:13:07.016Z,2.78
2023-01-28T01:16:13.148Z,2.72
2023-01-28T01:19:15.867Z,2.72
2023-01-28T01:22:18.728Z,2.68
2023-01-28T01:25:21.618Z,2.73
2023-01-28T01:28:23.944Z,2.75
2023-01-28T01:31:28.763Z,2.75
2023-01-28T01:34:31.195Z,2.63
2023-01-28T01:37:37.680Z,2.73
2023-01-28T01:40:39.980Z,2.65
2023-01-28T01:43:54.883Z,2.72
2023-01-28T01:46:57.266Z,2.67
2023-01-28T01:50:12.614Z,2.73
2023-01-28T01:53:19.012Z,2.72
2023-01-28T01:56:24.813Z,2.66
2023-01-28T01:59:30.826Z,2.74
2023-01-28T02:02:38.256Z,2.74
2023-01-28T02:05:40.857Z,2.72
2023-01-28T02:08:45.537Z,2.72
2023-01-28T02:11:48.572Z,2.71
2023-01-28T02:15:02.244Z,2.66
2023-01-28T02:18:04.955Z,2.67
2023-01-28T02:21:25.457Z,2.53
2023-01-28T02:24:40.383Z,2.67
2023-01-28T02:27:54.782Z,2.64
2023-01-28T02:31:08.221Z,2.62
2023-01-28T02:34:21.241Z,2.65
2023-01-28T02:37:38.218Z,2.70
2023-01-28T02:41:03.760Z,2.70
2023-01-28T02:44:06.517Z,2.66
2023-01-28T02:47:29.914Z,2.63
2023-01-28T02:50:44.920Z,2.56
2023-01-28T02:53:57.325Z,2.63
2023-01-28T02:57:16.834Z,2.63
2023-01-28T03:01:01.794Z,2.60
2023-01-28T03:04:27.029Z,2.70
2023-01-28T03:07:32.453Z,2.71
2023-01-28T03:10:37.154Z,2.72
2023-01-28T03:13:59.379Z,2.64
2023-01-28T03:17:26.371Z,2.63
2023-01-28T03:21:13.133Z,2.69
2023-01-28T03:24:39.874Z,2.68
2023-01-28T03:28:12.974Z,2.73
2023-01-28T03:31:37.856Z,2.73
2023-01-28T03:34:59.257Z,2.75
2023-01-28T03:38:18.693Z,2.72
2023-01-28T03:41:24.021Z,2.67
2023-01-28T03:44:46.954Z,2.70
2023-01-28T03:47:49.544Z,2.81
2023-01-28T03:50:54.704Z,2.68
2023-01-28T03:53:57.993Z,2.79
2023-01-28T03:57:00.664Z,2.84
2023-01-28T04:00:03.613Z,2.79
2023-01-28T04:03:18.466Z,2.72
2023-01-28T04:06:21.295Z,2.65
2023-01-28T04:09:24.977Z,2.69
2023-01-28T04:12:28.331Z,2.78
2023-01-28T04:15:31.128Z,2.79
2023-01-28T04:18:34.874Z,2.72
2023-01-28T04:21:38.099Z,2.76
2023-01-28T04:24:41.020Z,2.84
2023-01-28T04:27:44.096Z,2.83
2023-01-28T04:30:47.452Z,2.79
2023-01-28T04:33:50.809Z,2.74
2023-01-28T04:36:54.986Z,2.76
2023-01-28T04:39:57.433Z,2.71
2023-01-28T04:43:03.433Z,2.78
2023-01-28T04:46:06.387Z,2.77
2023-01-28T04:49:09.120Z,2.65
2023-01-28T04:52:14.301Z,2.72
2023-01-28T04:55:17.743Z,2.62
2023-01-28T04:58:22.258Z,2.64
2023-01-28T05:01:26.218Z,2.66
2023-01-28T05:04:28.876Z,2.65
2023-01-28T05:07:31.740Z,2.67
2023-01-28T05:10:34.291Z,2.72
2023-01-28T05:13:37.060Z,2.74
2023-01-28T05:16:40.284Z,2.74
2023-01-28T05:19:43.812Z,2.77
2023-01-28T05:22:48.067Z,2.64
2023-01-28T05:25:50.853Z,2.71
2023-01-28T05:28:53.411Z,2.72
2023-01-28T05:31:56.034Z,2.75
2023-01-28T05:34:59.095Z,2.67
2023-01-28T05:38:01.835Z,2.68
2023-01-28T05:41:04.334Z,2.67
2023-01-28T05:44:07.553Z,2.75
2023-01-28T05:47:10.124Z,2.75
2023-01-28T05:50:14.832Z,2.81
2023-01-28T05:53:18.496Z,2.73
2023-01-28T05:56:21.316Z,2.79
2023-01-28T05:59:25.184Z,2.79
2023-01-28T06:02:28.529Z,2.79
2023-01-28T06:05:31.560Z,2.78
2023-01-28T06:08:34.475Z,2.82
2023-01-28T06:11:37.160Z,2.79
2023-01-28T06:14:39.803Z,2.75
2023-01-28T06:17:42.630Z,2.74
2023-01-28T06:20:50.027Z,2.57
2023-01-28T06:23:52.745Z,2.59
2023-01-28T06:26:55.136Z,2.57
2023-01-28T06:29:57.731Z,2.52
2023-01-28T06:33:00.051Z,2.53
2023-01-28T06:36:04.526Z,2.49
2023-01-28T06:39:06.947Z,2.63
2023-01-28T06:42:09.615Z,2.58
2023-01-28T06:45:12.334Z,2.67
2023-01-28T06:48:15.061Z,2.68
2023-01-28T06:51:17.387Z,2.64
2023-01-28T06:54:20.141Z,2.62
2023-01-28T06:57:22.474Z,2.59
2023-01-28T07:00:25.786Z,2.64
2023-01-28T07:03:28.619Z,2.49
2023-01-28T07:06:31.317Z,2.55
2023-01-28T07:09:33.653Z,2.50
2023-01-28T07:12:36.328Z,2.52
2023-01-28T07:15:38.669Z,2.39
2023-01-28T07:18:41.402Z,2.36
2023-01-28T07:21:43.738Z,2.35
2023-01-28T07:24:46.564Z,2.48
2023-01-28T07:27:53.648Z,2.45
2023-01-28T07:30:56.692Z,2.53
2023-01-28T07:33:59.202Z,2.51
2023-01-28T07:40:05.091Z,2.52
2023-01-28T07:43:08.806Z,2.56
2023-01-28T07:46:11.612Z,2.52
2023-01-28T07:49:15.049Z,2.55
2023-01-28T07:52:17.397Z,2.61
2023-01-28T07:55:20.043Z,2.53
2023-01-28T07:58:22.450Z,2.63
2023-01-28T08:01:25.230Z,2.60
2023-01-28T08:04:28.043Z,2.61
2023-01-28T08:07:30.471Z,2.49
2023-01-28T08:10:33.159Z,2.55
2023-01-28T08:13:35.794Z,2.41
2023-01-28T08:16:38.431Z,2.51
2023-01-28T08:19:40.734Z,2.51
2023-01-28T08:22:43.335Z,2.57
2023-01-28T08:25:46.640Z,2.50
2023-01-28T08:28:51.314Z,2.53
2023-01-28T08:31:54.028Z,2.60
2023-01-28T08:34:57.078Z,2.52
2023-01-28T08:38:00.908Z,2.54
2023-01-28T08:41:03.589Z,2.63
2023-01-28T08:44:05.981Z,2.48
2023-01-28T08:47:08.717Z,2.55
2023-01-28T08:50:11.131Z,2.68
2023-01-28T08:53:19.245Z,2.66
2023-01-28T08:56:21.617Z,2.64
2023-01-28T08:59:26.572Z,2.59
2023-01-28T09:02:31.753Z,2.70
2023-01-28T09:05:35.884Z,2.73
2023-01-28T09:08:38.447Z,2.67
2023-01-28T09:11:41.108Z,2.73
2023-01-28T09:14:43.509Z,2.72
2023-01-28T09:17:46.295Z,2.77
2023-01-28T09:20:48.775Z,2.73
2023-01-28T09:23:51.858Z,2.91
2023-01-28T09:26:54.579Z,2.94
2023-01-28T09:29:57.399Z,2.90
2023-01-28T09:32:59.775Z,2.91
2023-01-28T09:36:04.501Z,2.88
2023-01-28T09:39:08.332Z,2.98
2023-01-28T09:42:40.586Z,3.02
2023-01-28T09:45:47.641Z,3.10
2023-01-28T09:48:53.585Z,2.97
2023-01-28T09:51:56.865Z,2.96
2023-01-28T09:55:13.497Z,2.90
2023-01-28T09:58:17.990Z,2.95
2023-01-28T10:01:38.714Z,2.99
2023-01-28T10:04:56.730Z,3.14
2023-01-28T10:08:18.905Z,3.06
2023-01-28T10:11:43.457Z,3.11
2023-01-28T10:15:04.429Z,3.29
2023-01-28T10:18:17.486Z,3.43
2023-01-28T10:21:45.185Z,3.47
2023-01-28T10:24:57.580Z,3.45
2023-01-28T10:28:01.427Z,3.47
2023-01-28T10:31:12.640Z,3.61
2023-01-28T10:34:15.173Z,3.63
2023-01-28T10:37:17.792Z,3.89
2023-01-28T10:40:20.361Z,3.89
2023-01-28T10:43:26.150Z,4.07
2023-01-28T10:46:33.276Z,4.02
2023-01-28T10:49:43.924Z,4.03
2023-01-28T10:52:58.252Z,4.20
2023-01-28T10:56:02.699Z,4.13
2023-01-28T10:59:07.048Z,4.14
2023-01-28T11:02:22.827Z,4.34
2023-01-28T11:05:28.392Z,4.44
2023-01-28T11:08:31.861Z,4.45
2023-01-28T11:11:34.275Z,4.27
2023-01-28T11:14:36.926Z,4.12
2023-01-28T11:17:39.509Z,3.95
2023-01-28T11:20:49.253Z,4.06
2023-01-28T11:23:59.075Z,4.18
2023-01-28T11:27:22.552Z,4.39
2023-01-28T11:30:40.187Z,4.48
2023-01-28T11:33:50.511Z,4.38
2023-01-28T11:37:16.354Z,4.35
2023-01-28T11:40:23.471Z,4.48
2023-01-28T11:43:29.156Z,4.47
2023-01-28T11:47:00.861Z,4.47
2023-01-28T11:50:31.265Z,4.48
2023-01-28T11:54:19.244Z,4.53
2023-01-28T11:57:24.399Z,4.53
2023-01-28T12:01:08.136Z,4.55
2023-01-28T12:04:26.544Z,4.56
2023-01-28T12:07:54.572Z,4.56
2023-01-28T12:11:19.391Z,4.55
2023-01-28T12:14:35.024Z,4.58
2023-01-28T12:18:11.823Z,4.56
2023-01-28T12:21:23.355Z,4.67
2023-01-28T12:24:43.877Z,4.69
2023-01-28T12:28:15.608Z,4.76
2023-01-28T12:31:43.019Z,4.66
2023-01-28T12:35:12.310Z,4.92
2023-01-28T12:38:21.030Z,4.97
2023-01-28T12:41:34.295Z,4.97
2023-01-28T12:44:51.814Z,4.94
2023-01-28T12:48:00.895Z,4.96
2023-01-28T12:51:22.689Z,5.00
2023-01-28T12:54:38.372Z,5.04
2023-01-28T12:57:41.632Z,5.02
2023-01-28T13:00:50.419Z,5.05
2023-01-28T13:04:12.117Z,5.02
2023-01-28T13:07:35.346Z,5.08
2023-01-28T13:10:44.249Z,4.96
2023-01-28T13:13:47.351Z,4.87
2023-01-28T13:16:49.964Z,4.75
2023-01-28T13:19:52.492Z,4.73
2023-01-28T13:23:02.089Z,4.83
2023-01-28T13:26:20.029Z,4.71
2023-01-28T13:29:25.683Z,4.69
2023-01-28T13:32:32.062Z,4.57
2023-01-28T13:35:37.840Z,4.58
2023-01-28T13:38:40.393Z,4.54
2023-01-28T13:41:55.095Z,4.60
2023-01-28T13:45:19.459Z,4.64
2023-01-28T13:48:44.776Z,4.51
2023-01-28T13:52:09.256Z,4.63
2023-01-28T13:55:11.864Z,4.77
2023-01-28T13:58:25.798Z,4.82
2023-01-28T14:01:39.002Z,4.72
2023-01-28T14:05:06.677Z,4.87
2023-01-28T14:08:29.871Z,4.80
2023-01-28T14:11:47.101Z,4.89
2023-01-28T14:15:25.868Z,4.75
2023-01-28T14:18:35.691Z,4.80
2023-01-28T14:21:38.557Z,4.83
2023-01-28T14:24:41.283Z,4.72
2023-01-28T14:27:48.110Z,4.69
2023-01-28T14:30:56.609Z,4.69
2023-01-28T14:34:11.056Z,4.80
2023-01-28T14:37:17.959Z,4.80
2023-01-28T14:40:21.489Z,4.69
2023-01-28T14:43:27.139Z,4.73
2023-01-28T14:46:45.830Z,4.63
2023-01-28T14:50:25.909Z,4.65
2023-01-28T14:53:49.615Z,4.64
2023-01-28T14:57:26.491Z,4.64
2023-01-28T15:00:31.728Z,4.59
2023-01-28T15:03:35.565Z,4.57
2023-01-28T15:06:38.007Z,4.47
2023-01-28T15:09:40.845Z,4.45
2023-01-28T15:12:48.593Z,4.34
2023-01-28T15:15:58.039Z,4.49
2023-01-28T15:19:01.811Z,4.38
2023-01-28T15:22:07.333Z,4.48
2023-01-28T15:25:22.019Z,4.30
2023-01-28T15:28:31.313Z,4.23
2023-01-28T15:31:39.023Z,4.25
2023-01-28T15:34:46.378Z,4.32
2023-01-28T15:41:01.785Z,3.97
2023-01-28T15:44:04.391Z,3.94
2023-01-28T15:47:17.657Z,3.86
2023-01-28T15:50:26.477Z,3.93
2023-01-28T15:53:51.170Z,3.83
2023-01-28T15:56:53.467Z,3.78
2023-01-28T16:00:14.973Z,3.73
2023-01-28T16:03:21.977Z,3.66
2023-01-28T16:06:31.507Z,3.61
2023-01-28T16:09:35.527Z,3.68
2023-01-28T16:12:37.946Z,3.81
2023-01-28T16:15:47.256Z,3.77
2023-01-28T16:18:55.870Z,3.65
2023-01-28T16:21:58.958Z,3.79
2023-01-28T16:25:02.039Z,3.68
2023-01-28T16:28:20.237Z,3.55
2023-01-28T16:31:23.070Z,3.44
2023-01-28T16:34:27.599Z,3.47
2023-01-28T16:37:30.332Z,3.49
2023-01-28T16:40:34.783Z,3.43
2023-01-28T16:43:37.164Z,3.53
2023-01-28T16:46:40.082Z,3.50
2023-01-28T16:49:42.498Z,3.38
2023-01-28T16:52:47.971Z,3.54
2023-01-28T16:55:51.399Z,3.40
2023-01-28T16:58:54.395Z,3.48
2023-01-28T17:01:56.771Z,3.43
2023-01-28T17:04:59.515Z,3.47
2023-01-28T17:08:01.877Z,3.44
2023-01-28T17:11:04.587Z,3.39
2023-01-28T17:14:07.001Z,3.47
2023-01-28T17:17:09.744Z,3.40
2023-01-28T17:20:12.379Z,3.42
2023-01-28T17:23:23.726Z,3.25
2023-01-28T17:26:26.607Z,3.36
2023-01-28T17:29:29.296Z,3.39
2023-01-28T17:32:31.640Z,3.28
2023-01-28T17:35:35.526Z,3.26
2023-01-28T17:38:38.273Z,3.39
2023-01-28T17:41:40.854Z,3.28
2023-01-28T17:44:43.494Z,3.36
2023-01-28T17:47:46.201Z,3.31
2023-01-28T17:50:48.577Z,3.42
2023-01-28T17:53:53.181Z,3.29
2023-01-28T17:56:56.076Z,3.18
2023-01-28T17:59:58.702Z,3.20
2023-01-28T18:03:01.036Z,3.21
2023-01-28T18:06:07.332Z,3.18
2023-01-28T18:09:10.046Z,3.14
2023-01-28T18:12:16.051Z,3.11
2023-01-28T18:15:18.672Z,3.07
2023-01-28T18:18:21.295Z,3.14
2023-01-28T18:21:51.736Z,3.18
2023-01-28T18:24:55.205Z,3.16
2023-01-28T18:27:57.508Z,3.20
2023-01-28T18:31:08.518Z,3.19
2023-01-28T18:34:10.837Z,3.19
2023-01-28T18:37:13.525Z,3.12
2023-01-28T18:40:15.973Z,3.09
2023-01-28T18:43:18.595Z,3.01
2023-01-28T18:46:20.950Z,3.01
2023-01-28T18:49:23.629Z,3.11
2023-01-28T18:52:25.979Z,3.03
2023-01-28T18:55:29.160Z,3.12
2023-01-28T18:58:32.214Z,3.14
2023-01-28T19:01:35.213Z,3.07
2023-01-28T19:04:37.598Z,3.02
2023-01-28T19:07:40.252Z,2.98
2023-01-28T19:10:42.738Z,3.02
2023-01-28T19:13:45.455Z,3.01
2023-01-28T19:16:47.869Z,3.03
2023-01-28T20:48:14.777Z,3.12
2023-01-28T20:51:20.402Z,3.09
2023-01-28T20:54:22.978Z,3.14
2023-01-28T20:57:25.761Z,3.10
2023-01-28T21:00:28.248Z,3.04
2023-01-28T21:03:31.080Z,3.09
2023-01-28T21:06:33.530Z,2.93
2023-01-28T21:09:36.114Z,2.86
2023-01-28T21:12:38.554Z,2.90
2023-01-28T21:15:50.559Z,3.01
2023-01-28T21:18:53.039Z,3.05
2023-01-28T21:21:55.640Z,3.11
2023-01-28T21:24:58.014Z,3.11
2023-01-28T21:28:00.663Z,3.02
2023-01-28T21:31:06.308Z,3.05
2023-01-28T21:34:10.016Z,2.95
2023-01-28T21:37:12.432Z,2.79
2023-01-28T21:40:15.515Z,2.83
2023-01-28T21:43:18.251Z,2.90
2023-01-28T21:46:29.057Z,2.97
2023-01-28T21:49:31.479Z,2.94
2023-01-28T21:52:34.092Z,3.03
2023-01-28T21:55:36.422Z,3.06
2023-01-28T21:58:57.483Z,3.11
2023-01-28T22:02:05.380Z,3.02
2023-01-28T22:05:08.176Z,3.01
2023-01-28T22:08:10.590Z,3.00
2023-01-28T22:11:13.282Z,2.85
2023-01-28T22:14:15.841Z,2.99
2023-01-28T22:17:19.256Z,2.99
2023-01-28T22:20:21.693Z,2.95
2023-01-28T22:23:24.468Z,2.95
2023-01-28T22:26:26.852Z,2.83
2023-01-28T22:29:29.510Z,2.78
2023-01-28T22:32:31.911Z,2.83
2023-01-28T22:35:34.674Z,3.03
2023-01-28T22:38:39.243Z,3.08
2023-01-28T22:41:42.861Z,3.02
2023-01-28T22:44:45.280Z,2.97
2023-01-28T22:47:47.927Z,3.06
2023-01-28T22:50:50.261Z,3.00
2023-01-28T22:53:53.718Z,2.99
2023-01-28T22:56:56.130Z,3.01
2023-01-28T23:00:00.650Z,3.01
2023-01-28T23:03:03.425Z,3.05
2023-01-28T23:06:06.214Z,2.82
2023-01-28T23:09:08.629Z,2.92
2023-01-28T23:12:11.556Z,2.82
2023-01-28T23:15:32.955Z,2.96
2023-01-28T23:18:55.305Z,2.96
2023-01-28T23:22:16.251Z,2.79
2023-01-28T23:25:20.096Z,2.93
2023-01-28T23:28:22.442Z,2.89
2023-01-28T23:31:25.362Z,2.83
2023-01-28T23:34:44.390Z,2.81
2023-01-28T23:37:47.987Z,2.80
2023-01-28T23:40:50.367Z,2.85
2023-01-28T23:43:52.989Z,2.76
2023-01-28T23:46:56.512Z,2.66
2023-01-28T23:49:59.378Z,2.78
2023-01-28T23:53:01.821Z,2.75
2023-01-28T23:56:08.080Z,2.74
2023-01-28T23:59:10.424Z,2.67
